sensor_id;sensor_type;location;lat;lon;timestamp;temperature;humidity
14489;DHT22;7330;50.804;4.550;2023-03-12T00:02:03;6.40;99.90
14489;DHT22;7330;50.804;4.550;2023-03-12T00:04:30;6.50;99.90
14489;DHT22;7330;50.804;4.550;2023-03-12T00:06:59;6.50;99.90
14489;DHT22;7330;50.804;4.550;2023-03-12T00:09:26;6.50;99.90
14489;DHT22;7330;50.804;4.550;2023-03-12T00:11:52;6.50;99.90
14489;DHT22;7330;50.804;4.550;2023-03-12T00:14:19;6.60;99.90
14489;DHT22;7330;50.804;4.550;2023-03-12T00:16:46;6.50;99.90
14489;DHT22;7330;50.804;4.550;2023-03-12T00:19:14;6.50;99.90
14489;DHT22;7330;50.804;4.550;2023-03-12T00:21:41;6.50;99.90
14489;DHT22;7330;50.804;4.550;2023-03-12T00:26:35;6.50;99.90
14489;DHT22;7330;50.804;4.550;2023-03-12T00:29:01;6.50;99.90
14489;DHT22;7330;50.804;4.550;2023-03-12T00:31:29;6.40;99.90
14489;DHT22;7330;50.804;4.550;2023-03-12T00:33:57;6.40;99.90
14489;DHT22;7330;50.804;4.550;2023-03-12T00:36:26;6.40;99.90
14489;DHT22;7330;50.804;4.550;2023-03-12T00:38:53;6.30;99.90
14489;DHT22;7330;50.804;4.550;2023-03-12T00:41:20;6.30;99.90
14489;DHT22;7330;50.804;4.550;2023-03-12T00:43:47;6.30;99.90
14489;DHT22;7330;50.804;4.550;2023-03-12T00:48:41;6.30;99.90
14489;DHT22;7330;50.804;4.550;2023-03-12T00:51:08;6.20;99.90
14489;DHT22;7330;50.804;4.550;2023-03-12T00:53:37;6.20;99.90
14489;DHT22;7330;50.804;4.550;2023-03-12T00:56:04;6.20;99.90
14489;DHT22;7330;50.804;4.550;2023-03-12T00:58:31;6.20;99.90
14489;DHT22;7330;50.804;4.550;2023-03-12T01:03:24;6.20;99.90
14489;DHT22;7330;50.804;4.550;2023-03-12T01:05:51;6.10;99.90
14489;DHT22;7330;50.804;4.550;2023-03-12T01:10:48;6.20;99.90
14489;DHT22;7330;50.804;4.550;2023-03-12T01:15:42;6.20;99.90
14489;DHT22;7330;50.804;4.550;2023-03-12T01:18:09;6.10;99.90
14489;DHT22;7330;50.804;4.550;2023-03-12T01:20:35;6.20;99.90
14489;DHT22;7330;50.804;4.550;2023-03-12T01:23:02;6.10;99.90
14489;DHT22;7330;50.804;4.550;2023-03-12T01:25:29;6.10;99.90
14489;DHT22;7330;50.804;4.550;2023-03-12T01:27:59;6.10;99.90
14489;DHT22;7330;50.804;4.550;2023-03-12T01:32:53;6.10;99.90
14489;DHT22;7330;50.804;4.550;2023-03-12T01:35:20;6.10;99.90
14489;DHT22;7330;50.804;4.550;2023-03-12T01:37:47;6.20;99.90
14489;DHT22;7330;50.804;4.550;2023-03-12T01:40:14;6.20;99.90
14489;DHT22;7330;50.804;4.550;2023-03-12T01:42:41;6.10;99.90
14489;DHT22;7330;50.804;4.550;2023-03-12T01:47:51;6.10;99.90
14489;DHT22;7330;50.804;4.550;2023-03-12T01:50:17;6.10;99.90
14489;DHT22;7330;50.804;4.550;2023-03-12T01:52:44;6.10;99.90
14489;DHT22;7330;50.804;4.550;2023-03-12T01:55:12;6.10;99.90
14489;DHT22;7330;50.804;4.550;2023-03-12T02:00:08;6.00;99.90
14489;DHT22;7330;50.804;4.550;2023-03-12T02:02:36;6.00;99.90
14489;DHT22;7330;50.804;4.550;2023-03-12T02:05:06;6.00;99.90
14489;DHT22;7330;50.804;4.550;2023-03-12T02:07:34;6.00;99.90
14489;DHT22;7330;50.804;4.550;2023-03-12T02:10:02;6.00;99.90
14489;DHT22;7330;50.804;4.550;2023-03-12T02:12:29;6.00;99.90
14489;DHT22;7330;50.804;4.550;2023-03-12T02:14:56;6.10;99.90
14489;DHT22;7330;50.804;4.550;2023-03-12T02:22:18;6.00;99.90
14489;DHT22;7330;50.804;4.550;2023-03-12T02:24:47;5.90;99.90
14489;DHT22;7330;50.804;4.550;2023-03-12T02:27:18;5.90;99.90
14489;DHT22;7330;50.804;4.550;2023-03-12T02:29:45;5.90;99.90
14489;DHT22;7330;50.804;4.550;2023-03-12T02:34:39;5.90;99.90
14489;DHT22;7330;50.804;4.550;2023-03-12T02:39:33;5.90;99.90
14489;DHT22;7330;50.804;4.550;2023-03-12T02:44:30;5.90;99.90
14489;DHT22;7330;50.804;4.550;2023-03-12T02:46:58;5.90;99.90
14489;DHT22;7330;50.804;4.550;2023-03-12T02:49:26;6.00;99.90
14489;DHT22;7330;50.804;4.550;2023-03-12T02:51:53;6.00;99.90
14489;DHT22;7330;50.804;4.550;2023-03-12T02:54:20;6.00;99.90
14489;DHT22;7330;50.804;4.550;2023-03-12T02:56:47;6.00;99.90
14489;DHT22;7330;50.804;4.550;2023-03-12T02:59:14;6.00;99.90
14489;DHT22;7330;50.804;4.550;2023-03-12T03:01:42;6.00;99.90
14489;DHT22;7330;50.804;4.550;2023-03-12T03:06:36;6.00;99.90
14489;DHT22;7330;50.804;4.550;2023-03-12T03:09:04;6.00;99.90
14489;DHT22;7330;50.804;4.550;2023-03-12T03:11:31;6.00;99.90
14489;DHT22;7330;50.804;4.550;2023-03-12T03:13:58;5.90;99.90
14489;DHT22;7330;50.804;4.550;2023-03-12T03:16:25;6.00;99.90
14489;DHT22;7330;50.804;4.550;2023-03-12T03:18:53;5.90;99.90
14489;DHT22;7330;50.804;4.550;2023-03-12T03:21:20;6.00;99.90
14489;DHT22;7330;50.804;4.550;2023-03-12T03:23:47;6.00;99.90
14489;DHT22;7330;50.804;4.550;2023-03-12T03:26:15;6.00;99.90
14489;DHT22;7330;50.804;4.550;2023-03-12T03:28:43;6.00;99.90
14489;DHT22;7330;50.804;4.550;2023-03-12T03:31:10;6.00;99.90
14489;DHT22;7330;50.804;4.550;2023-03-12T03:33:38;6.00;99.90
14489;DHT22;7330;50.804;4.550;2023-03-12T03:36:07;6.00;99.90
14489;DHT22;7330;50.804;4.550;2023-03-12T03:38:34;6.10;99.90
14489;DHT22;7330;50.804;4.550;2023-03-12T03:41:01;6.10;99.90
14489;DHT22;7330;50.804;4.550;2023-03-12T03:43:28;6.10;99.90
14489;DHT22;7330;50.804;4.550;2023-03-12T03:45:55;6.10;99.90
14489;DHT22;7330;50.804;4.550;2023-03-12T03:48:23;6.10;99.90
14489;DHT22;7330;50.804;4.550;2023-03-12T03:50:49;6.10;99.90
14489;DHT22;7330;50.804;4.550;2023-03-12T03:58:12;6.10;99.90
14489;DHT22;7330;50.804;4.550;2023-03-12T04:00:39;6.10;99.90
14489;DHT22;7330;50.804;4.550;2023-03-12T04:03:06;6.10;99.90
14489;DHT22;7330;50.804;4.550;2023-03-12T04:05:33;6.10;99.90
14489;DHT22;7330;50.804;4.550;2023-03-12T04:10:36;6.20;99.90
14489;DHT22;7330;50.804;4.550;2023-03-12T04:13:03;6.20;99.90
14489;DHT22;7330;50.804;4.550;2023-03-12T04:17:58;6.20;99.90
14489;DHT22;7330;50.804;4.550;2023-03-12T04:22:52;6.30;99.90
14489;DHT22;7330;50.804;4.550;2023-03-12T04:25:19;6.30;99.90
14489;DHT22;7330;50.804;4.550;2023-03-12T04:27:46;6.30;99.90
14489;DHT22;7330;50.804;4.550;2023-03-12T04:30:13;6.30;99.90
14489;DHT22;7330;50.804;4.550;2023-03-12T04:32:39;6.30;99.90
14489;DHT22;7330;50.804;4.550;2023-03-12T04:35:08;6.30;99.90
14489;DHT22;7330;50.804;4.550;2023-03-12T04:40:02;6.30;99.90
14489;DHT22;7330;50.804;4.550;2023-03-12T04:44:58;6.30;99.90
14489;DHT22;7330;50.804;4.550;2023-03-12T04:47:25;6.30;99.90
14489;DHT22;7330;50.804;4.550;2023-03-12T04:52:20;6.40;99.90
14489;DHT22;7330;50.804;4.550;2023-03-12T04:54:47;6.40;99.90
14489;DHT22;7330;50.804;4.550;2023-03-12T04:57:15;6.50;99.90
14489;DHT22;7330;50.804;4.550;2023-03-12T04:59:42;6.50;99.90
14489;DHT22;7330;50.804;4.550;2023-03-12T05:02:09;6.50;99.90
14489;DHT22;7330;50.804;4.550;2023-03-12T05:04:36;6.50;99.90
14489;DHT22;7330;50.804;4.550;2023-03-12T05:07:02;6.50;99.90
14489;DHT22;7330;50.804;4.550;2023-03-12T05:09:31;6.50;99.90
14489;DHT22;7330;50.804;4.550;2023-03-12T05:11:58;6.60;99.90
14489;DHT22;7330;50.804;4.550;2023-03-12T05:14:24;6.50;99.90
14489;DHT22;7330;50.804;4.550;2023-03-12T05:16:51;6.60;99.90
14489;DHT22;7330;50.804;4.550;2023-03-12T05:19:18;6.60;99.90
14489;DHT22;7330;50.804;4.550;2023-03-12T05:21:45;6.60;99.90
14489;DHT22;7330;50.804;4.550;2023-03-12T05:24:11;6.60;99.90
14489;DHT22;7330;50.804;4.550;2023-03-12T05:26:40;6.60;99.90
14489;DHT22;7330;50.804;4.550;2023-03-12T05:29:07;6.60;99.90
14489;DHT22;7330;50.804;4.550;2023-03-12T05:31:33;6.60;99.90
14489;DHT22;7330;50.804;4.550;2023-03-12T05:34:01;8.90;99.90
14489;DHT22;7330;50.804;4.550;2023-03-12T05:38:55;6.70;99.90
14489;DHT22;7330;50.804;4.550;2023-03-12T05:41:22;6.70;99.90
14489;DHT22;7330;50.804;4.550;2023-03-12T05:43:52;6.70;99.90
14489;DHT22;7330;50.804;4.550;2023-03-12T05:46:19;6.80;99.90
14489;DHT22;7330;50.804;4.550;2023-03-12T05:51:13;6.70;99.90
14489;DHT22;7330;50.804;4.550;2023-03-12T05:53:40;6.70;99.90
14489;DHT22;7330;50.804;4.550;2023-03-12T05:56:08;6.80;99.90
14489;DHT22;7330;50.804;4.550;2023-03-12T06:01:09;6.90;99.90
14489;DHT22;7330;50.804;4.550;2023-03-12T06:03:36;6.90;99.90
14489;DHT22;7330;50.804;4.550;2023-03-12T06:06:03;6.90;99.90
14489;DHT22;7330;50.804;4.550;2023-03-12T06:08:30;6.90;99.90
14489;DHT22;7330;50.804;4.550;2023-03-12T06:13:24;6.90;99.90
14489;DHT22;7330;50.804;4.550;2023-03-12T06:15:52;7.00;99.90
14489;DHT22;7330;50.804;4.550;2023-03-12T06:18:21;7.00;99.90
14489;DHT22;7330;50.804;4.550;2023-03-12T06:20:47;7.10;99.90
14489;DHT22;7330;50.804;4.550;2023-03-12T06:23:14;7.10;99.90
14489;DHT22;7330;50.804;4.550;2023-03-12T06:25:43;7.10;99.90
14489;DHT22;7330;50.804;4.550;2023-03-12T06:28:10;7.20;99.90
14489;DHT22;7330;50.804;4.550;2023-03-12T06:30:37;7.20;99.90
14489;DHT22;7330;50.804;4.550;2023-03-12T06:35:34;7.30;99.90
14489;DHT22;7330;50.804;4.550;2023-03-12T06:40:28;7.40;99.90
14489;DHT22;7330;50.804;4.550;2023-03-12T06:42:55;7.40;99.90
14489;DHT22;7330;50.804;4.550;2023-03-12T06:47:49;7.50;99.90
14489;DHT22;7330;50.804;4.550;2023-03-12T06:50:16;7.50;99.90
14489;DHT22;7330;50.804;4.550;2023-03-12T06:57:38;7.60;99.90
14489;DHT22;7330;50.804;4.550;2023-03-12T07:00:05;7.70;99.90
14489;DHT22;7330;50.804;4.550;2023-03-12T07:02:33;7.70;99.90
14489;DHT22;7330;50.804;4.550;2023-03-12T07:05:00;7.80;99.90
14489;DHT22;7330;50.804;4.550;2023-03-12T07:07:27;7.90;99.90
14489;DHT22;7330;50.804;4.550;2023-03-12T07:09:54;7.90;99.90
14489;DHT22;7330;50.804;4.550;2023-03-12T07:14:49;8.00;99.90
14489;DHT22;7330;50.804;4.550;2023-03-12T07:17:16;8.10;99.90
14489;DHT22;7330;50.804;4.550;2023-03-12T07:19:42;8.10;99.90
14489;DHT22;7330;50.804;4.550;2023-03-12T07:22:09;8.20;99.90
14489;DHT22;7330;50.804;4.550;2023-03-12T07:24:36;8.20;99.90
14489;DHT22;7330;50.804;4.550;2023-03-12T07:27:03;8.30;99.90
14489;DHT22;7330;50.804;4.550;2023-03-12T07:29:30;8.40;99.90
14489;DHT22;7330;50.804;4.550;2023-03-12T07:34:25;8.50;99.90
14489;DHT22;7330;50.804;4.550;2023-03-12T07:36:52;8.60;99.90
14489;DHT22;7330;50.804;4.550;2023-03-12T07:39:19;8.60;99.90
14489;DHT22;7330;50.804;4.550;2023-03-12T07:41:46;8.70;99.90
14489;DHT22;7330;50.804;4.550;2023-03-12T07:44:12;8.70;99.90
14489;DHT22;7330;50.804;4.550;2023-03-12T07:46:39;8.80;99.90
14489;DHT22;7330;50.804;4.550;2023-03-12T07:49:06;8.90;99.90
14489;DHT22;7330;50.804;4.550;2023-03-12T07:51:35;9.00;99.90
14489;DHT22;7330;50.804;4.550;2023-03-12T07:54:01;9.10;99.90
14489;DHT22;7330;50.804;4.550;2023-03-12T07:56:28;9.10;99.90
14489;DHT22;7330;50.804;4.550;2023-03-12T07:58:55;9.20;99.90
14489;DHT22;7330;50.804;4.550;2023-03-12T08:01:22;9.20;99.90
14489;DHT22;7330;50.804;4.550;2023-03-12T08:03:49;9.30;99.90
14489;DHT22;7330;50.804;4.550;2023-03-12T08:06:16;9.30;99.90
14489;DHT22;7330;50.804;4.550;2023-03-12T08:08:45;9.40;99.90
14489;DHT22;7330;50.804;4.550;2023-03-12T08:11:11;9.40;99.90
14489;DHT22;7330;50.804;4.550;2023-03-12T08:16:05;9.50;99.90
14489;DHT22;7330;50.804;4.550;2023-03-12T08:18:32;9.60;99.90
14489;DHT22;7330;50.804;4.550;2023-03-12T08:20:59;9.60;99.90
14489;DHT22;7330;50.804;4.550;2023-03-12T08:23:26;9.70;99.90
14489;DHT22;7330;50.804;4.550;2023-03-12T08:25:54;9.70;99.90
14489;DHT22;7330;50.804;4.550;2023-03-12T08:30:49;9.70;99.90
14489;DHT22;7330;50.804;4.550;2023-03-12T08:33:16;9.80;99.90
14489;DHT22;7330;50.804;4.550;2023-03-12T08:35:43;9.80;99.90
14489;DHT22;7330;50.804;4.550;2023-03-12T08:38:09;9.80;99.90
14489;DHT22;7330;50.804;4.550;2023-03-12T08:40:36;9.90;99.90
14489;DHT22;7330;50.804;4.550;2023-03-12T08:43:05;9.90;99.90
14489;DHT22;7330;50.804;4.550;2023-03-12T08:45:33;10.00;99.90
14489;DHT22;7330;50.804;4.550;2023-03-12T08:52:56;10.10;99.90
14489;DHT22;7330;50.804;4.550;2023-03-12T08:55:23;10.10;99.90
14489;DHT22;7330;50.804;4.550;2023-03-12T08:57:50;10.10;99.90
14489;DHT22;7330;50.804;4.550;2023-03-12T09:00:18;10.20;99.90
14489;DHT22;7330;50.804;4.550;2023-03-12T09:02:45;10.20;99.90
14489;DHT22;7330;50.804;4.550;2023-03-12T09:05:12;10.30;99.90
14489;DHT22;7330;50.804;4.550;2023-03-12T09:07:39;10.40;99.90
14489;DHT22;7330;50.804;4.550;2023-03-12T09:10:06;10.40;99.90
14489;DHT22;7330;50.804;4.550;2023-03-12T09:15:00;10.50;99.90
14489;DHT22;7330;50.804;4.550;2023-03-12T09:17:29;10.50;99.90
14489;DHT22;7330;50.804;4.550;2023-03-12T09:19:56;10.60;99.90
14489;DHT22;7330;50.804;4.550;2023-03-12T09:22:22;10.70;99.90
14489;DHT22;7330;50.804;4.550;2023-03-12T09:24:49;10.80;99.90
14489;DHT22;7330;50.804;4.550;2023-03-12T09:27:16;10.90;99.90
14489;DHT22;7330;50.804;4.550;2023-03-12T09:29:43;11.00;99.90
14489;DHT22;7330;50.804;4.550;2023-03-12T09:32:10;11.10;99.90
14489;DHT22;7330;50.804;4.550;2023-03-12T09:37:07;11.30;99.90
14489;DHT22;7330;50.804;4.550;2023-03-12T09:39:34;11.40;99.90
14489;DHT22;7330;50.804;4.550;2023-03-12T09:42:00;11.50;99.90
14489;DHT22;7330;50.804;4.550;2023-03-12T09:44:29;11.60;99.90
14489;DHT22;7330;50.804;4.550;2023-03-12T09:46:59;11.70;99.90
14489;DHT22;7330;50.804;4.550;2023-03-12T09:49:29;11.80;99.90
14489;DHT22;7330;50.804;4.550;2023-03-12T09:51:57;11.90;99.90
14489;DHT22;7330;50.804;4.550;2023-03-12T09:54:28;12.00;99.90
14489;DHT22;7330;50.804;4.550;2023-03-12T09:56:59;12.20;99.90
14489;DHT22;7330;50.804;4.550;2023-03-12T09:59:28;12.20;99.90
14489;DHT22;7330;50.804;4.550;2023-03-12T10:04:23;12.30;99.90
14489;DHT22;7330;50.804;4.550;2023-03-12T10:06:54;12.40;99.90
14489;DHT22;7330;50.804;4.550;2023-03-12T10:09:26;12.50;99.90
14489;DHT22;7330;50.804;4.550;2023-03-12T10:11:57;12.50;99.90
14489;DHT22;7330;50.804;4.550;2023-03-12T10:14:30;12.50;99.90
14489;DHT22;7330;50.804;4.550;2023-03-12T10:17:01;12.50;99.90
14489;DHT22;7330;50.804;4.550;2023-03-12T10:21:57;12.60;99.90
14489;DHT22;7330;50.804;4.550;2023-03-12T10:24:33;12.70;99.90
14489;DHT22;7330;50.804;4.550;2023-03-12T10:27:05;12.70;99.90
14489;DHT22;7330;50.804;4.550;2023-03-12T10:32:03;12.70;99.90
14489;DHT22;7330;50.804;4.550;2023-03-12T10:34:31;12.80;99.90
14489;DHT22;7330;50.804;4.550;2023-03-12T10:37:03;12.80;99.90
14489;DHT22;7330;50.804;4.550;2023-03-12T10:39:30;12.80;99.90
14489;DHT22;7330;50.804;4.550;2023-03-12T10:41:57;12.90;99.90
14489;DHT22;7330;50.804;4.550;2023-03-12T10:44:26;12.90;99.90
14489;DHT22;7330;50.804;4.550;2023-03-12T10:46:59;12.90;99.90
14489;DHT22;7330;50.804;4.550;2023-03-12T10:49:29;12.90;99.90
14489;DHT22;7330;50.804;4.550;2023-03-12T10:51:57;13.00;99.90
14489;DHT22;7330;50.804;4.550;2023-03-12T10:54:27;13.10;99.90
14489;DHT22;7330;50.804;4.550;2023-03-12T10:56:54;13.10;99.90
14489;DHT22;7330;50.804;4.550;2023-03-12T11:01:50;13.10;99.90
14489;DHT22;7330;50.804;4.550;2023-03-12T11:04:18;13.20;99.90
14489;DHT22;7330;50.804;4.550;2023-03-12T11:09:27;13.40;99.90
14489;DHT22;7330;50.804;4.550;2023-03-12T11:11:55;13.40;99.90
14489;DHT22;7330;50.804;4.550;2023-03-12T11:16:50;13.50;99.90
14489;DHT22;7330;50.804;4.550;2023-03-12T11:24:12;13.60;99.90
14489;DHT22;7330;50.804;4.550;2023-03-12T11:26:43;13.60;99.90
14489;DHT22;7330;50.804;4.550;2023-03-12T11:29:15;13.70;99.90
14489;DHT22;7330;50.804;4.550;2023-03-12T11:31:43;13.70;99.90
14489;DHT22;7330;50.804;4.550;2023-03-12T11:34:13;13.70;99.90
14489;DHT22;7330;50.804;4.550;2023-03-12T11:36:47;13.70;99.90
14489;DHT22;7330;50.804;4.550;2023-03-12T11:39:19;13.70;99.90
14489;DHT22;7330;50.804;4.550;2023-03-12T11:42:03;13.80;99.90
14489;DHT22;7330;50.804;4.550;2023-03-12T11:44:34;13.80;99.90
14489;DHT22;7330;50.804;4.550;2023-03-12T11:47:05;13.90;99.90
14489;DHT22;7330;50.804;4.550;2023-03-12T11:49:42;13.90;99.90
14489;DHT22;7330;50.804;4.550;2023-03-12T11:54:47;13.90;99.90
14489;DHT22;7330;50.804;4.550;2023-03-12T11:57:21;13.90;99.90
14489;DHT22;7330;50.804;4.550;2023-03-12T11:59:54;14.00;99.90
14489;DHT22;7330;50.804;4.550;2023-03-12T12:02:45;14.00;99.90
14489;DHT22;7330;50.804;4.550;2023-03-12T12:05:23;14.00;99.90
14489;DHT22;7330;50.804;4.550;2023-03-12T12:07:57;14.00;99.90
14489;DHT22;7330;50.804;4.550;2023-03-12T12:10:27;13.90;99.90
14489;DHT22;7330;50.804;4.550;2023-03-12T12:12:58;13.80;99.90
14489;DHT22;7330;50.804;4.550;2023-03-12T12:15:32;13.80;99.90
14489;DHT22;7330;50.804;4.550;2023-03-12T12:18:04;13.70;99.90
14489;DHT22;7330;50.804;4.550;2023-03-12T12:20:42;13.60;99.90
14489;DHT22;7330;50.804;4.550;2023-03-12T12:23:16;13.60;99.90
14489;DHT22;7330;50.804;4.550;2023-03-12T12:25:49;13.70;99.90
14489;DHT22;7330;50.804;4.550;2023-03-12T12:28:27;13.80;99.90
14489;DHT22;7330;50.804;4.550;2023-03-12T12:31:07;13.80;99.90
14489;DHT22;7330;50.804;4.550;2023-03-12T12:33:44;13.80;99.90
14489;DHT22;7330;50.804;4.550;2023-03-12T12:38:45;13.80;99.90
14489;DHT22;7330;50.804;4.550;2023-03-12T12:41:13;13.90;99.90
14489;DHT22;7330;50.804;4.550;2023-03-12T12:43:42;13.90;99.90
14489;DHT22;7330;50.804;4.550;2023-03-12T12:46:11;13.80;99.90
14489;DHT22;7330;50.804;4.550;2023-03-12T12:48:40;13.80;99.90
14489;DHT22;7330;50.804;4.550;2023-03-12T12:51:09;13.80;99.90
14489;DHT22;7330;50.804;4.550;2023-03-12T12:53:38;13.80;99.90
14489;DHT22;7330;50.804;4.550;2023-03-12T12:56:10;13.80;99.90
14489;DHT22;7330;50.804;4.550;2023-03-12T12:58:50;13.80;99.90
14489;DHT22;7330;50.804;4.550;2023-03-12T13:01:22;13.70;99.90
14489;DHT22;7330;50.804;4.550;2023-03-12T13:06:16;13.70;99.90
14489;DHT22;7330;50.804;4.550;2023-03-12T13:09:00;13.70;99.90
14489;DHT22;7330;50.804;4.550;2023-03-12T13:11:37;13.70;99.90
14489;DHT22;7330;50.804;4.550;2023-03-12T13:14:19;13.70;99.90
14489;DHT22;7330;50.804;4.550;2023-03-12T13:16:46;13.70;99.90
14489;DHT22;7330;50.804;4.550;2023-03-12T13:19:21;13.70;99.90
14489;DHT22;7330;50.804;4.550;2023-03-12T13:21:51;13.80;99.90
14489;DHT22;7330;50.804;4.550;2023-03-12T13:24:23;13.70;99.90
14489;DHT22;7330;50.804;4.550;2023-03-12T13:26:53;13.70;99.90
14489;DHT22;7330;50.804;4.550;2023-03-12T13:29:34;13.80;99.90
14489;DHT22;7330;50.804;4.550;2023-03-12T13:32:02;13.80;99.90
14489;DHT22;7330;50.804;4.550;2023-03-12T13:34:41;13.80;99.90
14489;DHT22;7330;50.804;4.550;2023-03-12T13:39:37;13.80;99.90
14489;DHT22;7330;50.804;4.550;2023-03-12T13:44:37;13.80;99.90
14489;DHT22;7330;50.804;4.550;2023-03-12T13:47:04;13.70;99.90
14489;DHT22;7330;50.804;4.550;2023-03-12T13:49:43;13.70;99.90
14489;DHT22;7330;50.804;4.550;2023-03-12T13:54:39;13.70;99.90
14489;DHT22;7330;50.804;4.550;2023-03-12T13:57:09;13.80;99.90
14489;DHT22;7330;50.804;4.550;2023-03-12T13:59:42;13.90;99.90
14489;DHT22;7330;50.804;4.550;2023-03-12T14:02:14;13.90;99.90
14489;DHT22;7330;50.804;4.550;2023-03-12T14:04:46;14.00;99.90
14489;DHT22;7330;50.804;4.550;2023-03-12T14:12:24;14.00;99.90
14489;DHT22;7330;50.804;4.550;2023-03-12T14:15:00;14.00;99.90
14489;DHT22;7330;50.804;4.550;2023-03-12T14:17:31;14.10;99.90
14489;DHT22;7330;50.804;4.550;2023-03-12T14:24:53;14.30;99.90
14489;DHT22;7330;50.804;4.550;2023-03-12T14:27:25;14.30;99.90
14489;DHT22;7330;50.804;4.550;2023-03-12T14:29:54;14.30;99.90
14489;DHT22;7330;50.804;4.550;2023-03-12T14:32:24;14.20;99.90
14489;DHT22;7330;50.804;4.550;2023-03-12T14:39:48;14.10;99.90
14489;DHT22;7330;50.804;4.550;2023-03-12T14:44:51;14.10;99.90
14489;DHT22;7330;50.804;4.550;2023-03-12T14:49:47;14.10;99.90
14489;DHT22;7330;50.804;4.550;2023-03-12T14:52:19;14.10;99.90
14489;DHT22;7330;50.804;4.550;2023-03-12T14:54:53;14.10;99.90
14489;DHT22;7330;50.804;4.550;2023-03-12T14:57:20;14.00;99.90
14489;DHT22;7330;50.804;4.550;2023-03-12T14:59:52;14.10;99.90
14489;DHT22;7330;50.804;4.550;2023-03-12T15:02:20;14.10;99.90
14489;DHT22;7330;50.804;4.550;2023-03-12T15:07:16;14.20;99.90
14489;DHT22;7330;50.804;4.550;2023-03-12T15:14:39;14.10;99.90
14489;DHT22;7330;50.804;4.550;2023-03-12T15:17:06;14.10;99.90
14489;DHT22;7330;50.804;4.550;2023-03-12T15:19:35;14.00;99.90
14489;DHT22;7330;50.804;4.550;2023-03-12T15:22:03;14.10;99.90
14489;DHT22;7330;50.804;4.550;2023-03-12T15:24:36;14.10;99.90
14489;DHT22;7330;50.804;4.550;2023-03-12T15:27:17;14.10;99.90
14489;DHT22;7330;50.804;4.550;2023-03-12T15:29:44;14.10;99.90
14489;DHT22;7330;50.804;4.550;2023-03-12T15:34:38;14.20;99.90
14489;DHT22;7330;50.804;4.550;2023-03-12T15:37:18;14.10;99.90
14489;DHT22;7330;50.804;4.550;2023-03-12T15:39:47;14.10;99.90
14489;DHT22;7330;50.804;4.550;2023-03-12T15:42:15;14.10;99.90
14489;DHT22;7330;50.804;4.550;2023-03-12T15:47:11;14.00;99.90
14489;DHT22;7330;50.804;4.550;2023-03-12T15:49:39;14.00;99.90
14489;DHT22;7330;50.804;4.550;2023-03-12T15:52:23;14.10;99.90
14489;DHT22;7330;50.804;4.550;2023-03-12T15:57:22;14.00;99.90
14489;DHT22;7330;50.804;4.550;2023-03-12T16:04:58;14.00;99.90
14489;DHT22;7330;50.804;4.550;2023-03-12T16:07:25;14.00;99.90
14489;DHT22;7330;50.804;4.550;2023-03-12T16:09:52;14.00;99.90
14489;DHT22;7330;50.804;4.550;2023-03-12T16:12:19;14.00;99.90
14489;DHT22;7330;50.804;4.550;2023-03-12T16:14:48;13.90;99.90
14489;DHT22;7330;50.804;4.550;2023-03-12T16:17:15;14.00;99.90
14489;DHT22;7330;50.804;4.550;2023-03-12T16:19:42;13.90;99.90
14489;DHT22;7330;50.804;4.550;2023-03-12T16:22:09;14.00;99.90
14489;DHT22;7330;50.804;4.550;2023-03-12T16:24:35;14.00;99.90
14489;DHT22;7330;50.804;4.550;2023-03-12T16:27:02;13.90;99.90
14489;DHT22;7330;50.804;4.550;2023-03-12T16:31:59;13.90;99.90
14489;DHT22;7330;50.804;4.550;2023-03-12T16:34:26;13.90;99.90
14489;DHT22;7330;50.804;4.550;2023-03-12T16:36:53;13.80;99.90
14489;DHT22;7330;50.804;4.550;2023-03-12T16:39:20;13.80;99.90
14489;DHT22;7330;50.804;4.550;2023-03-12T16:41:48;13.80;99.90
14489;DHT22;7330;50.804;4.550;2023-03-12T16:54:04;13.80;99.90
14489;DHT22;7330;50.804;4.550;2023-03-12T16:56:32;13.80;99.90
14489;DHT22;7330;50.804;4.550;2023-03-12T16:59:00;13.70;99.90
14489;DHT22;7330;50.804;4.550;2023-03-12T17:01:28;13.80;99.90
14489;DHT22;7330;50.804;4.550;2023-03-12T17:03:55;13.80;99.90
14489;DHT22;7330;50.804;4.550;2023-03-12T17:06:23;13.70;99.90
14489;DHT22;7330;50.804;4.550;2023-03-12T17:08:51;13.70;99.90
14489;DHT22;7330;50.804;4.550;2023-03-12T17:13:47;13.60;99.90
14489;DHT22;7330;50.804;4.550;2023-03-12T17:16:15;13.70;99.90
14489;DHT22;7330;50.804;4.550;2023-03-12T17:18:42;13.70;99.90
14489;DHT22;7330;50.804;4.550;2023-03-12T17:21:09;13.60;99.90
14489;DHT22;7330;50.804;4.550;2023-03-12T17:23:36;13.60;99.90
14489;DHT22;7330;50.804;4.550;2023-03-12T17:28:30;13.60;99.90
14489;DHT22;7330;50.804;4.550;2023-03-12T17:30:58;13.50;99.90
14489;DHT22;7330;50.804;4.550;2023-03-12T17:38:19;13.40;99.90
14489;DHT22;7330;50.804;4.550;2023-03-12T17:40:46;13.40;99.90
14489;DHT22;7330;50.804;4.550;2023-03-12T17:43:13;13.40;99.90
14489;DHT22;7330;50.804;4.550;2023-03-12T17:45:40;13.30;99.90
14489;DHT22;7330;50.804;4.550;2023-03-12T17:48:08;13.30;99.90
14489;DHT22;7330;50.804;4.550;2023-03-12T17:53:02;13.30;99.90
14489;DHT22;7330;50.804;4.550;2023-03-12T17:57:56;13.20;99.90
14489;DHT22;7330;50.804;4.550;2023-03-12T18:00:23;13.20;99.90
14489;DHT22;7330;50.804;4.550;2023-03-12T18:02:50;13.20;99.90
14489;DHT22;7330;50.804;4.550;2023-03-12T18:05:18;13.20;99.90
14489;DHT22;7330;50.804;4.550;2023-03-12T18:10:12;13.10;99.90
14489;DHT22;7330;50.804;4.550;2023-03-12T18:12:39;13.10;99.90
14489;DHT22;7330;50.804;4.550;2023-03-12T18:15:06;13.10;99.90
14489;DHT22;7330;50.804;4.550;2023-03-12T18:17:34;13.10;99.90
14489;DHT22;7330;50.804;4.550;2023-03-12T18:20:00;13.00;99.90
14489;DHT22;7330;50.804;4.550;2023-03-12T18:22:34;13.00;99.90
14489;DHT22;7330;50.804;4.550;2023-03-12T18:25:00;13.00;99.90
14489;DHT22;7330;50.804;4.550;2023-03-12T18:27:27;12.90;99.90
14489;DHT22;7330;50.804;4.550;2023-03-12T18:29:54;13.00;99.90
14489;DHT22;7330;50.804;4.550;2023-03-12T18:32:21;12.90;99.90
14489;DHT22;7330;50.804;4.550;2023-03-12T18:34:48;12.90;99.90
14489;DHT22;7330;50.804;4.550;2023-03-12T18:37:17;12.90;99.90
14489;DHT22;7330;50.804;4.550;2023-03-12T18:39:45;12.90;99.90
14489;DHT22;7330;50.804;4.550;2023-03-12T18:42:12;12.90;99.90
14489;DHT22;7330;50.804;4.550;2023-03-12T18:44:39;12.90;99.90
14489;DHT22;7330;50.804;4.550;2023-03-12T18:47:06;12.90;99.90
14489;DHT22;7330;50.804;4.550;2023-03-12T18:54:27;12.90;99.90
14489;DHT22;7330;50.804;4.550;2023-03-12T18:59:22;12.80;99.90
14489;DHT22;7330;50.804;4.550;2023-03-12T19:01:49;12.90;99.90
14489;DHT22;7330;50.804;4.550;2023-03-12T19:09:10;12.80;99.90
14489;DHT22;7330;50.804;4.550;2023-03-12T19:11:38;12.80;99.90
14489;DHT22;7330;50.804;4.550;2023-03-12T19:14:05;12.80;99.90
14489;DHT22;7330;50.804;4.550;2023-03-12T19:16:33;12.80;99.90
14489;DHT22;7330;50.804;4.550;2023-03-12T19:19:00;12.70;99.90
14489;DHT22;7330;50.804;4.550;2023-03-12T19:23:54;12.70;99.90
14489;DHT22;7330;50.804;4.550;2023-03-12T19:31:14;12.60;99.90
14489;DHT22;7330;50.804;4.550;2023-03-12T19:33:43;12.60;99.90
14489;DHT22;7330;50.804;4.550;2023-03-12T19:36:10;12.70;99.90
14489;DHT22;7330;50.804;4.550;2023-03-12T19:41:05;12.70;99.90
14489;DHT22;7330;50.804;4.550;2023-03-12T19:43:32;12.60;99.90